sensor_id;sensor_type;location;lat;lon;timestamp;P1;durP1;ratioP1;P2;durP2;ratioP2
11197;SDS011;5655;48.744;9.162;2023-04-22T00:00:09;3.45;;;2.03;;
11197;SDS011;5655;48.744;9.162;2023-04-22T00:02:36;3.72;;;2.03;;
11197;SDS011;5655;48.744;9.162;2023-04-22T00:05:02;4.43;;;2.25;;
11197;SDS011;5655;48.744;9.162;2023-04-22T00:07:29;3.78;;;1.85;;
11197;SDS011;5655;48.744;9.162;2023-04-22T00:09:54;2.53;;;2.13;;
11197;SDS011;5655;48.744;9.162;2023-04-22T00:12:19;3.53;;;2.28;;
11197;SDS011;5655;48.744;9.162;2023-04-22T00:14:45;4.05;;;2.67;;
11197;SDS011;5655;48.744;9.162;2023-04-22T00:17:11;4.82;;;2.80;;
11197;SDS011;5655;48.744;9.162;2023-04-22T00:19:36;4.50;;;3.22;;
11197;SDS011;5655;48.744;9.162;2023-04-22T00:22:02;3.80;;;3.30;;
11197;SDS011;5655;48.744;9.162;2023-04-22T00:24:28;4.57;;;3.75;;
11197;SDS011;5655;48.744;9.162;2023-04-22T00:26:53;5.68;;;4.70;;
11197;SDS011;5655;48.744;9.162;2023-04-22T00:29:19;7.93;;;5.35;;
11197;SDS011;5655;48.744;9.162;2023-04-22T00:31:44;6.28;;;4.85;;
11197;SDS011;5655;48.744;9.162;2023-04-22T00:34:09;7.70;;;5.25;;
11197;SDS011;5655;48.744;9.162;2023-04-22T00:36:35;6.30;;;5.28;;
11197;SDS011;5655;48.744;9.162;2023-04-22T00:39:00;8.02;;;5.18;;
11197;SDS011;5655;48.744;9.162;2023-04-22T00:41:26;8.45;;;5.65;;
11197;SDS011;5655;48.744;9.162;2023-04-22T00:43:51;6.57;;;5.25;;
11197;SDS011;5655;48.744;9.162;2023-04-22T00:46:17;6.50;;;5.13;;
11197;SDS011;5655;48.744;9.162;2023-04-22T00:48:44;7.43;;;4.90;;
11197;SDS011;5655;48.744;9.162;2023-04-22T00:51:10;5.97;;;4.55;;
11197;SDS011;5655;48.744;9.162;2023-04-22T00:53:35;7.50;;;6.18;;
11197;SDS011;5655;48.744;9.162;2023-04-22T00:56:00;8.27;;;5.50;;
11197;SDS011;5655;48.744;9.162;2023-04-22T00:58:26;7.70;;;5.90;;
11197;SDS011;5655;48.744;9.162;2023-04-22T01:00:53;7.35;;;5.70;;
11197;SDS011;5655;48.744;9.162;2023-04-22T01:03:19;7.47;;;5.53;;
11197;SDS011;5655;48.744;9.162;2023-04-22T01:05:49;8.90;;;5.70;;
11197;SDS011;5655;48.744;9.162;2023-04-22T01:08:14;6.88;;;5.70;;
11197;SDS011;5655;48.744;9.162;2023-04-22T01:10:40;7.20;;;5.90;;
11197;SDS011;5655;48.744;9.162;2023-04-22T01:13:06;6.82;;;5.55;;
11197;SDS011;5655;48.744;9.162;2023-04-22T01:15:32;7.75;;;5.88;;
11197;SDS011;5655;48.744;9.162;2023-04-22T01:17:57;7.38;;;5.70;;
11197;SDS011;5655;48.744;9.162;2023-04-22T01:20:24;7.88;;;6.20;;
11197;SDS011;5655;48.744;9.162;2023-04-22T01:22:53;7.25;;;6.18;;
11197;SDS011;5655;48.744;9.162;2023-04-22T01:25:21;6.63;;;5.03;;
11197;SDS011;5655;48.744;9.162;2023-04-22T01:27:47;8.85;;;5.82;;
11197;SDS011;5655;48.744;9.162;2023-04-22T01:30:13;7.97;;;5.93;;
11197;SDS011;5655;48.744;9.162;2023-04-22T01:32:39;7.72;;;5.10;;
11197;SDS011;5655;48.744;9.162;2023-04-22T01:35:05;7.63;;;5.30;;
11197;SDS011;5655;48.744;9.162;2023-04-22T01:37:31;8.30;;;5.57;;
11197;SDS011;5655;48.744;9.162;2023-04-22T01:39:56;10.23;;;5.95;;
11197;SDS011;5655;48.744;9.162;2023-04-22T01:42:23;5.93;;;5.32;;
11197;SDS011;5655;48.744;9.162;2023-04-22T01:44:49;6.60;;;5.60;;
11197;SDS011;5655;48.744;9.162;2023-04-22T01:47:14;7.40;;;5.65;;
11197;SDS011;5655;48.744;9.162;2023-04-22T01:49:39;11.40;;;6.13;;
11197;SDS011;5655;48.744;9.162;2023-04-22T01:52:05;11.45;;;5.60;;
11197;SDS011;5655;48.744;9.162;2023-04-22T01:54:30;7.60;;;5.88;;
11197;SDS011;5655;48.744;9.162;2023-04-22T01:56:56;8.77;;;5.90;;
11197;SDS011;5655;48.744;9.162;2023-04-22T01:59:22;6.65;;;5.53;;
11197;SDS011;5655;48.744;9.162;2023-04-22T02:01:47;7.68;;;6.00;;
11197;SDS011;5655;48.744;9.162;2023-04-22T02:04:13;7.38;;;5.82;;
11197;SDS011;5655;48.744;9.162;2023-04-22T02:06:38;6.80;;;5.75;;
11197;SDS011;5655;48.744;9.162;2023-04-22T02:09:04;7.28;;;5.40;;
11197;SDS011;5655;48.744;9.162;2023-04-22T02:11:29;6.40;;;5.18;;
11197;SDS011;5655;48.744;9.162;2023-04-22T02:13:54;7.10;;;4.90;;
11197;SDS011;5655;48.744;9.162;2023-04-22T02:16:20;5.10;;;4.60;;
11197;SDS011;5655;48.744;9.162;2023-04-22T02:18:45;5.88;;;4.85;;
11197;SDS011;5655;48.744;9.162;2023-04-22T02:21:10;5.95;;;4.65;;
11197;SDS011;5655;48.744;9.162;2023-04-22T02:23:36;4.82;;;4.30;;
11197;SDS011;5655;48.744;9.162;2023-04-22T02:26:03;5.30;;;4.35;;
11197;SDS011;5655;48.744;9.162;2023-04-22T02:28:29;6.85;;;4.80;;
11197;SDS011;5655;48.744;9.162;2023-04-22T02:30:54;6.20;;;4.38;;
11197;SDS011;5655;48.744;9.162;2023-04-22T02:33:19;5.47;;;4.97;;
11197;SDS011;5655;48.744;9.162;2023-04-22T02:35:45;6.25;;;4.88;;
11197;SDS011;5655;48.744;9.162;2023-04-22T02:38:10;6.50;;;5.32;;
11197;SDS011;5655;48.744;9.162;2023-04-22T02:40:36;8.13;;;5.70;;
11197;SDS011;5655;48.744;9.162;2023-04-22T02:43:01;8.15;;;6.80;;
11197;SDS011;5655;48.744;9.162;2023-04-22T02:45:26;8.10;;;6.82;;
11197;SDS011;5655;48.744;9.162;2023-04-22T02:47:52;11.30;;;7.80;;
11197;SDS011;5655;48.744;9.162;2023-04-22T02:50:17;9.40;;;7.10;;
11197;SDS011;5655;48.744;9.162;2023-04-22T02:52:42;11.38;;;7.78;;
11197;SDS011;5655;48.744;9.162;2023-04-22T02:55:08;10.30;;;7.15;;
11197;SDS011;5655;48.744;9.162;2023-04-22T02:57:34;10.32;;;8.50;;
11197;SDS011;5655;48.744;9.162;2023-04-22T02:59:59;10.63;;;8.25;;
11197;SDS011;5655;48.744;9.162;2023-04-22T03:02:25;10.13;;;8.05;;
11197;SDS011;5655;48.744;9.162;2023-04-22T03:04:50;13.32;;;8.80;;
11197;SDS011;5655;48.744;9.162;2023-04-22T03:07:18;11.57;;;8.35;;
11197;SDS011;5655;48.744;9.162;2023-04-22T03:09:43;10.88;;;8.13;;
11197;SDS011;5655;48.744;9.162;2023-04-22T03:12:09;10.13;;;8.30;;
11197;SDS011;5655;48.744;9.162;2023-04-22T03:14:34;9.85;;;8.15;;
11197;SDS011;5655;48.744;9.162;2023-04-22T03:16:59;13.52;;;8.73;;
11197;SDS011;5655;48.744;9.162;2023-04-22T03:19:25;13.45;;;9.18;;
11197;SDS011;5655;48.744;9.162;2023-04-22T03:21:50;12.07;;;8.80;;
11197;SDS011;5655;48.744;9.162;2023-04-22T03:24:15;10.57;;;8.85;;
11197;SDS011;5655;48.744;9.162;2023-04-22T03:26:41;12.93;;;8.18;;
11197;SDS011;5655;48.744;9.162;2023-04-22T03:29:06;10.20;;;8.25;;
11197;SDS011;5655;48.744;9.162;2023-04-22T03:31:31;12.35;;;8.40;;
11197;SDS011;5655;48.744;9.162;2023-04-22T03:33:56;10.07;;;8.70;;
11197;SDS011;5655;48.744;9.162;2023-04-22T03:36:22;12.77;;;9.07;;
11197;SDS011;5655;48.744;9.162;2023-04-22T03:38:47;12.13;;;8.85;;
11197;SDS011;5655;48.744;9.162;2023-04-22T03:41:12;12.40;;;9.50;;
11197;SDS011;5655;48.744;9.162;2023-04-22T03:43:38;10.98;;;8.27;;
11197;SDS011;5655;48.744;9.162;2023-04-22T03:46:03;10.98;;;8.52;;
11197;SDS011;5655;48.744;9.162;2023-04-22T03:48:28;12.15;;;8.95;;
11197;SDS011;5655;48.744;9.162;2023-04-22T03:50:58;11.82;;;8.98;;
11197;SDS011;5655;48.744;9.162;2023-04-22T03:53:24;10.13;;;8.43;;
11197;SDS011;5655;48.744;9.162;2023-04-22T03:55:49;10.52;;;8.95;;
11197;SDS011;5655;48.744;9.162;2023-04-22T03:58:14;10.90;;;9.02;;
11197;SDS011;5655;48.744;9.162;2023-04-22T04:00:40;12.65;;;8.88;;
11197;SDS011;5655;48.744;9.162;2023-04-22T04:03:05;12.60;;;8.95;;
11197;SDS011;5655;48.744;9.162;2023-04-22T04:05:30;10.68;;;8.80;;
11197;SDS011;5655;48.744;9.162;2023-04-22T04:07:56;10.77;;;8.30;;
11197;SDS011;5655;48.744;9.162;2023-04-22T04:10:21;11.35;;;9.48;;
11197;SDS011;5655;48.744;9.162;2023-04-22T04:12:46;11.70;;;9.73;;
11197;SDS011;5655;48.744;9.162;2023-04-22T04:15:12;11.93;;;9.55;;
11197;SDS011;5655;48.744;9.162;2023-04-22T04:17:37;11.45;;;9.85;;
11197;SDS011;5655;48.744;9.162;2023-04-22T04:20:02;11.90;;;9.68;;
11197;SDS011;5655;48.744;9.162;2023-04-22T04:22:28;11.75;;;9.90;;
11197;SDS011;5655;48.744;9.162;2023-04-22T04:24:53;12.40;;;10.05;;
11197;SDS011;5655;48.744;9.162;2023-04-22T04:27:20;15.32;;;10.63;;
11197;SDS011;5655;48.744;9.162;2023-04-22T04:29:47;13.23;;;10.60;;
11197;SDS011;5655;48.744;9.162;2023-04-22T04:32:13;13.30;;;10.48;;
11197;SDS011;5655;48.744;9.162;2023-04-22T04:34:38;12.85;;;10.13;;
11197;SDS011;5655;48.744;9.162;2023-04-22T04:37:04;14.00;;;10.57;;
11197;SDS011;5655;48.744;9.162;2023-04-22T04:39:29;15.20;;;10.82;;
11197;SDS011;5655;48.744;9.162;2023-04-22T04:41:54;13.80;;;9.90;;
11197;SDS011;5655;48.744;9.162;2023-04-22T04:44:22;10.90;;;9.05;;
11197;SDS011;5655;48.744;9.162;2023-04-22T04:46:48;12.43;;;9.07;;
11197;SDS011;5655;48.744;9.162;2023-04-22T04:49:14;11.05;;;8.80;;
11197;SDS011;5655;48.744;9.162;2023-04-22T04:51:40;11.27;;;8.27;;
11197;SDS011;5655;48.744;9.162;2023-04-22T04:54:06;9.90;;;8.38;;
11197;SDS011;5655;48.744;9.162;2023-04-22T04:56:31;12.60;;;9.57;;
11197;SDS011;5655;48.744;9.162;2023-04-22T04:58:57;10.88;;;7.55;;
11197;SDS011;5655;48.744;9.162;2023-04-22T05:01:22;10.52;;;6.88;;
11197;SDS011;5655;48.744;9.162;2023-04-22T05:03:47;8.85;;;6.53;;
11197;SDS011;5655;48.744;9.162;2023-04-22T05:06:13;7.85;;;6.60;;
11197;SDS011;5655;48.744;9.162;2023-04-22T05:08:38;9.75;;;5.88;;
11197;SDS011;5655;48.744;9.162;2023-04-22T05:11:04;9.65;;;5.07;;
11197;SDS011;5655;48.744;9.162;2023-04-22T05:13:29;6.85;;;4.63;;
11197;SDS011;5655;48.744;9.162;2023-04-22T05:15:54;7.47;;;5.47;;
11197;SDS011;5655;48.744;9.162;2023-04-22T05:18:20;6.00;;;4.63;;
11197;SDS011;5655;48.744;9.162;2023-04-22T05:20:46;5.75;;;4.20;;
11197;SDS011;5655;48.744;9.162;2023-04-22T05:23:11;6.65;;;4.90;;
11197;SDS011;5655;48.744;9.162;2023-04-22T05:25:36;6.43;;;5.03;;
11197;SDS011;5655;48.744;9.162;2023-04-22T05:28:02;7.15;;;5.25;;
11197;SDS011;5655;48.744;9.162;2023-04-22T05:30:27;6.70;;;4.47;;
11197;SDS011;5655;48.744;9.162;2023-04-22T05:32:53;5.63;;;4.50;;
11197;SDS011;5655;48.744;9.162;2023-04-22T05:35:18;5.40;;;4.13;;
11197;SDS011;5655;48.744;9.162;2023-04-22T05:37:43;6.00;;;4.40;;
11197;SDS011;5655;48.744;9.162;2023-04-22T05:40:09;6.82;;;4.30;;
11197;SDS011;5655;48.744;9.162;2023-04-22T05:42:34;6.75;;;4.93;;
11197;SDS011;5655;48.744;9.162;2023-04-22T05:44:59;5.85;;;4.50;;
11197;SDS011;5655;48.744;9.162;2023-04-22T05:47:25;5.15;;;4.20;;
11197;SDS011;5655;48.744;9.162;2023-04-22T05:49:50;4.15;;;3.35;;
11197;SDS011;5655;48.744;9.162;2023-04-22T05:52:15;4.43;;;3.65;;
11197;SDS011;5655;48.744;9.162;2023-04-22T05:54:42;5.13;;;3.55;;
11197;SDS011;5655;48.744;9.162;2023-04-22T05:57:07;7.40;;;3.72;;
11197;SDS011;5655;48.744;9.162;2023-04-22T05:59:33;5.18;;;3.30;;
11197;SDS011;5655;48.744;9.162;2023-04-22T06:01:58;3.97;;;3.53;;
11197;SDS011;5655;48.744;9.162;2023-04-22T06:04:23;4.22;;;3.53;;
11197;SDS011;5655;48.744;9.162;2023-04-22T06:06:49;4.43;;;3.15;;
11197;SDS011;5655;48.744;9.162;2023-04-22T06:09:17;5.07;;;3.60;;
11197;SDS011;5655;48.744;9.162;2023-04-22T06:11:43;6.22;;;3.40;;
11197;SDS011;5655;48.744;9.162;2023-04-22T06:14:08;5.70;;;3.50;;
11197;SDS011;5655;48.744;9.162;2023-04-22T06:16:34;4.90;;;3.92;;
11197;SDS011;5655;48.744;9.162;2023-04-22T06:18:59;6.10;;;4.22;;
11197;SDS011;5655;48.744;9.162;2023-04-22T06:21:24;6.68;;;4.00;;
11197;SDS011;5655;48.744;9.162;2023-04-22T06:23:50;6.45;;;3.47;;
11197;SDS011;5655;48.744;9.162;2023-04-22T06:26:16;5.47;;;3.63;;
11197;SDS011;5655;48.744;9.162;2023-04-22T06:28:41;7.35;;;4.35;;
11197;SDS011;5655;48.744;9.162;2023-04-22T06:31:06;6.22;;;3.97;;
11197;SDS011;5655;48.744;9.162;2023-04-22T06:33:32;4.78;;;4.03;;
11197;SDS011;5655;48.744;9.162;2023-04-22T06:35:57;4.97;;;4.05;;
11197;SDS011;5655;48.744;9.162;2023-04-22T06:38:23;6.00;;;3.88;;
11197;SDS011;5655;48.744;9.162;2023-04-22T06:40:48;4.78;;;3.83;;
11197;SDS011;5655;48.744;9.162;2023-04-22T06:43:13;5.30;;;3.50;;
11197;SDS011;5655;48.744;9.162;2023-04-22T06:45:39;5.60;;;3.78;;
11197;SDS011;5655;48.744;9.162;2023-04-22T06:48:05;5.25;;;3.67;;
11197;SDS011;5655;48.744;9.162;2023-04-22T06:50:31;4.55;;;3.90;;
11197;SDS011;5655;48.744;9.162;2023-04-22T06:52:56;7.43;;;4.40;;
11197;SDS011;5655;48.744;9.162;2023-04-22T06:55:21;4.82;;;4.30;;
11197;SDS011;5655;48.744;9.162;2023-04-22T06:57:47;4.80;;;3.97;;
11197;SDS011;5655;48.744;9.162;2023-04-22T07:00:12;4.65;;;3.97;;
11197;SDS011;5655;48.744;9.162;2023-04-22T07:02:38;4.20;;;3.80;;
11197;SDS011;5655;48.744;9.162;2023-04-22T07:05:03;6.43;;;4.07;;
11197;SDS011;5655;48.744;9.162;2023-04-22T07:07:29;4.97;;;4.22;;
11197;SDS011;5655;48.744;9.162;2023-04-22T07:09:54;3.60;;;3.25;;
11197;SDS011;5655;48.744;9.162;2023-04-22T07:12:19;4.63;;;3.47;;
11197;SDS011;5655;48.744;9.162;2023-04-22T07:14:45;4.47;;;3.83;;
11197;SDS011;5655;48.744;9.162;2023-04-22T07:17:12;5.55;;;3.67;;
11197;SDS011;5655;48.744;9.162;2023-04-22T07:19:38;3.83;;;3.40;;
11197;SDS011;5655;48.744;9.162;2023-04-22T07:22:03;4.63;;;3.85;;
11197;SDS011;5655;48.744;9.162;2023-04-22T07:24:30;3.55;;;3.25;;
11197;SDS011;5655;48.744;9.162;2023-04-22T07:26:56;3.92;;;3.53;;
11197;SDS011;5655;48.744;9.162;2023-04-22T07:29:21;4.80;;;3.47;;
11197;SDS011;5655;48.744;9.162;2023-04-22T07:31:47;4.25;;;3.10;;
11197;SDS011;5655;48.744;9.162;2023-04-22T07:34:12;4.53;;;3.15;;
11197;SDS011;5655;48.744;9.162;2023-04-22T07:36:38;5.68;;;3.40;;
11197;SDS011;5655;48.744;9.162;2023-04-22T07:39:03;5.55;;;3.67;;
11197;SDS011;5655;48.744;9.162;2023-04-22T07:41:29;4.50;;;3.53;;
11197;SDS011;5655;48.744;9.162;2023-04-22T07:43:54;5.30;;;3.92;;
11197;SDS011;5655;48.744;9.162;2023-04-22T07:46:19;3.50;;;3.10;;
11197;SDS011;5655;48.744;9.162;2023-04-22T07:48:45;5.20;;;3.03;;
11197;SDS011;5655;48.744;9.162;2023-04-22T07:51:10;4.13;;;3.35;;
11197;SDS011;5655;48.744;9.162;2023-04-22T07:53:35;5.22;;;3.72;;
11197;SDS011;5655;48.744;9.162;2023-04-22T07:56:01;4.35;;;3.45;;
11197;SDS011;5655;48.744;9.162;2023-04-22T07:58:26;5.57;;;3.20;;
11197;SDS011;5655;48.744;9.162;2023-04-22T08:00:52;5.47;;;3.33;;
11197;SDS011;5655;48.744;9.162;2023-04-22T08:03:17;6.60;;;3.75;;
11197;SDS011;5655;48.744;9.162;2023-04-22T08:05:42;5.88;;;3.55;;
11197;SDS011;5655;48.744;9.162;2023-04-22T08:08:08;3.90;;;3.47;;
11197;SDS011;5655;48.744;9.162;2023-04-22T08:10:33;3.97;;;3.13;;
11197;SDS011;5655;48.744;9.162;2023-04-22T08:12:59;3.35;;;2.83;;
11197;SDS011;5655;48.744;9.162;2023-04-22T08:15:24;2.97;;;2.65;;
11197;SDS011;5655;48.744;9.162;2023-04-22T08:17:50;4.40;;;2.70;;
11197;SDS011;5655;48.744;9.162;2023-04-22T08:20:15;3.40;;;2.58;;
11197;SDS011;5655;48.744;9.162;2023-04-22T08:22:42;3.28;;;2.40;;
11197;SDS011;5655;48.744;9.162;2023-04-22T08:25:08;4.70;;;2.88;;
11197;SDS011;5655;48.744;9.162;2023-04-22T08:27:34;3.03;;;2.58;;
11197;SDS011;5655;48.744;9.162;2023-04-22T08:29:59;4.55;;;2.63;;
11197;SDS011;5655;48.744;9.162;2023-04-22T08:32:25;3.85;;;2.65;;
11197;SDS011;5655;48.744;9.162;2023-04-22T08:34:50;2.30;;;2.10;;
11197;SDS011;5655;48.744;9.162;2023-04-22T08:37:16;3.47;;;2.95;;
11197;SDS011;5655;48.744;9.162;2023-04-22T08:39:41;2.90;;;2.22;;
11197;SDS011;5655;48.744;9.162;2023-04-22T08:42:06;5.25;;;3.30;;
11197;SDS011;5655;48.744;9.162;2023-04-22T08:44:33;3.83;;;2.75;;
11197;SDS011;5655;48.744;9.162;2023-04-22T08:46:59;6.13;;;2.50;;
11197;SDS011;5655;48.744;9.162;2023-04-22T08:49:25;3.45;;;2.15;;
11197;SDS011;5655;48.744;9.162;2023-04-22T08:51:51;4.18;;;2.40;;
11197;SDS011;5655;48.744;9.162;2023-04-22T08:54:17;3.50;;;2.50;;
11197;SDS011;5655;48.744;9.162;2023-04-22T08:56:43;3.08;;;2.50;;
11197;SDS011;5655;48.744;9.162;2023-04-22T08:59:12;3.38;;;2.33;;
11197;SDS011;5655;48.744;9.162;2023-04-22T09:01:38;3.90;;;2.42;;
11197;SDS011;5655;48.744;9.162;2023-04-22T09:04:04;2.40;;;2.20;;
11197;SDS011;5655;48.744;9.162;2023-04-22T09:06:31;2.60;;;2.00;;
11197;SDS011;5655;48.744;9.162;2023-04-22T09:08:57;2.95;;;2.00;;
11197;SDS011;5655;48.744;9.162;2023-04-22T09:11:23;3.75;;;2.03;;
11197;SDS011;5655;48.744;9.162;2023-04-22T09:13:54;2.47;;;1.77;;
11197;SDS011;5655;48.744;9.162;2023-04-22T09:16:20;1.55;;;1.38;;
11197;SDS011;5655;48.744;9.162;2023-04-22T09:18:45;2.40;;;1.88;;
11197;SDS011;5655;48.744;9.162;2023-04-22T09:21:10;3.97;;;1.90;;
11197;SDS011;5655;48.744;9.162;2023-04-22T09:23:49;1.60;;;1.50;;
11197;SDS011;5655;48.744;9.162;2023-04-22T09:26:22;3.08;;;2.20;;
11197;SDS011;5655;48.744;9.162;2023-04-22T09:31:22;4.30;;;1.98;;
11197;SDS011;5655;48.744;9.162;2023-04-22T09:33:50;2.78;;;1.70;;
11197;SDS011;5655;48.744;9.162;2023-04-22T09:36:21;2.13;;;1.70;;
11197;SDS011;5655;48.744;9.162;2023-04-22T09:38:51;1.92;;;1.63;;
11197;SDS011;5655;48.744;9.162;2023-04-22T09:41:17;2.30;;;1.85;;
11197;SDS011;5655;48.744;9.162;2023-04-22T09:43:50;2.55;;;2.00;;
11197;SDS011;5655;48.744;9.162;2023-04-22T09:46:15;1.98;;;1.65;;
11197;SDS011;5655;48.744;9.162;2023-04-22T09:48:41;2.70;;;1.73;;
11197;SDS011;5655;48.744;9.162;2023-04-22T09:51:14;3.22;;;1.85;;
11197;SDS011;5655;48.744;9.162;2023-04-22T09:53:43;1.75;;;1.65;;
11197;SDS011;5655;48.744;9.162;2023-04-22T09:56:10;1.58;;;1.48;;
11197;SDS011;5655;48.744;9.162;2023-04-22T09:58:38;2.00;;;1.50;;
11197;SDS011;5655;48.744;9.162;2023-04-22T10:01:04;3.05;;;1.52;;
11197;SDS011;5655;48.744;9.162;2023-04-22T10:03:30;3.13;;;1.63;;
11197;SDS011;5655;48.744;9.162;2023-04-22T10:05:56;1.90;;;1.50;;
11197;SDS011;5655;48.744;9.162;2023-04-22T10:08:22;2.00;;;1.80;;
11197;SDS011;5655;48.744;9.162;2023-04-22T10:10:48;2.35;;;1.48;;
11197;SDS011;5655;48.744;9.162;2023-04-22T10:13:13;2.95;;;1.50;;
11197;SDS011;5655;48.744;9.162;2023-04-22T10:15:39;2.75;;;1.45;;
11197;SDS011;5655;48.744;9.162;2023-04-22T10:18:07;1.90;;;1.48;;
11197;SDS011;5655;48.744;9.162;2023-04-22T10:20:36;2.38;;;1.40;;
11197;SDS011;5655;48.744;9.162;2023-04-22T10:23:03;1.30;;;1.20;;
11197;SDS011;5655;48.744;9.162;2023-04-22T10:25:30;1.30;;;1.20;;
11197;SDS011;5655;48.744;9.162;2023-04-22T10:28:03;2.75;;;1.80;;
11197;SDS011;5655;48.744;9.162;2023-04-22T10:30:30;2.30;;;1.10;;
11197;SDS011;5655;48.744;9.162;2023-04-22T10:41:13;1.95;;;1.55;;
11197;SDS011;5655;48.744;9.162;2023-04-22T10:43:40;2.45;;;1.23;;
11197;SDS011;5655;48.744;9.162;2023-04-22T10:46:54;2.45;;;1.40;;
11197;SDS011;5655;48.744;9.162;2023-04-22T10:49:08;2.20;;;1.25;;
11197;SDS011;5655;48.744;9.162;2023-04-22T10:57:04;1.65;;;1.30;;
11197;SDS011;5655;48.744;9.162;2023-04-22T11:02:13;1.48;;;1.30;;
11197;SDS011;5655;48.744;9.162;2023-04-22T11:04:39;3.38;;;1.05;;
11197;SDS011;5655;48.744;9.162;2023-04-22T11:15:13;3.80;;;1.38;;
11197;SDS011;5655;48.744;9.162;2023-04-22T11:17:44;1.73;;;1.35;;
11197;SDS011;5655;48.744;9.162;2023-04-22T11:20:12;4.18;;;1.63;;
11197;SDS011;5655;48.744;9.162;2023-04-22T11:22:41;2.88;;;1.60;;
11197;SDS011;5655;48.744;9.162;2023-04-22T11:25:08;1.98;;;1.27;;
11197;SDS011;5655;48.744;9.162;2023-04-22T11:27:35;1.77;;;1.50;;
11197;SDS011;5655;48.744;9.162;2023-04-22T11:32:28;2.08;;;1.50;;
11197;SDS011;5655;48.744;9.162;2023-04-22T11:34:54;2.00;;;1.40;;
11197;SDS011;5655;48.744;9.162;2023-04-22T11:37:20;1.98;;;1.70;;
11197;SDS011;5655;48.744;9.162;2023-04-22T11:39:45;2.88;;;1.25;;
11197;SDS011;5655;48.744;9.162;2023-04-22T11:42:11;1.45;;;1.30;;
11197;SDS011;5655;48.744;9.162;2023-04-22T11:44:37;4.28;;;1.25;;
11197;SDS011;5655;48.744;9.162;2023-04-22T11:47:03;3.13;;;1.35;;
11197;SDS011;5655;48.744;9.162;2023-04-22T11:49:28;2.90;;;1.38;;
11197;SDS011;5655;48.744;9.162;2023-04-22T11:51:56;1.55;;;1.40;;
11197;SDS011;5655;48.744;9.162;2023-04-22T11:54:29;4.75;;;1.50;;
11197;SDS011;5655;48.744;9.162;2023-04-22T11:56:55;4.57;;;1.58;;
11197;SDS011;5655;48.744;9.162;2023-04-22T11:59:22;3.40;;;1.30;;
11197;SDS011;5655;48.744;9.162;2023-04-22T12:01:48;1.73;;;1.30;;
11197;SDS011;5655;48.744;9.162;2023-04-22T12:04:14;4.03;;;1.73;;
11197;SDS011;5655;48.744;9.162;2023-04-22T12:06:39;2.55;;;1.70;;
11197;SDS011;5655;48.744;9.162;2023-04-22T12:09:06;1.35;;;1.23;;
11197;SDS011;5655;48.744;9.162;2023-04-22T12:11:32;5.60;;;1.70;;
11197;SDS011;5655;48.744;9.162;2023-04-22T12:14:03;4.93;;;1.50;;
11197;SDS011;5655;48.744;9.162;2023-04-22T12:16:38;2.50;;;1.38;;
11197;SDS011;5655;48.744;9.162;2023-04-22T12:19:04;3.10;;;1.77;;
11197;SDS011;5655;48.744;9.162;2023-04-22T12:21:29;3.38;;;1.50;;
11197;SDS011;5655;48.744;9.162;2023-04-22T12:23:59;2.15;;;1.60;;
11197;SDS011;5655;48.744;9.162;2023-04-22T12:26:29;1.88;;;1.38;;
11197;SDS011;5655;48.744;9.162;2023-04-22T12:28:55;1.55;;;1.40;;
11197;SDS011;5655;48.744;9.162;2023-04-22T12:31:25;2.90;;;1.50;;
11197;SDS011;5655;48.744;9.162;2023-04-22T12:33:51;3.50;;;1.73;;
11197;SDS011;5655;48.744;9.162;2023-04-22T12:36:17;1.88;;;1.50;;
11197;SDS011;5655;48.744;9.162;2023-04-22T12:38:47;2.90;;;1.42;;
11197;SDS011;5655;48.744;9.162;2023-04-22T12:41:13;1.95;;;1.65;;
11197;SDS011;5655;48.744;9.162;2023-04-22T12:43:39;3.08;;;1.50;;
11197;SDS011;5655;48.744;9.162;2023-04-22T12:46:05;1.60;;;1.40;;
11197;SDS011;5655;48.744;9.162;2023-04-22T12:48:31;3.75;;;1.92;;
11197;SDS011;5655;48.744;9.162;2023-04-22T12:50:57;2.40;;;1.33;;
11197;SDS011;5655;48.744;9.162;2023-04-22T12:53:23;6.53;;;1.30;;
11197;SDS011;5655;48.744;9.162;2023-04-22T12:55:48;3.78;;;1.52;;
11197;SDS011;5655;48.744;9.162;2023-04-22T12:58:14;4.20;;;1.73;;
11197;SDS011;5655;48.744;9.162;2023-04-22T13:00:39;3.33;;;1.55;;
11197;SDS011;5655;48.744;9.162;2023-04-22T13:03:05;4.57;;;1.77;;
11197;SDS011;5655;48.744;9.162;2023-04-22T13:05:30;2.58;;;1.50;;
11197;SDS011;5655;48.744;9.162;2023-04-22T13:07:55;5.03;;;1.50;;
11197;SDS011;5655;48.744;9.162;2023-04-22T13:10:21;2.90;;;1.27;;
11197;SDS011;5655;48.744;9.162;2023-04-22T13:12:47;3.10;;;1.50;;
11197;SDS011;5655;48.744;9.162;2023-04-22T13:15:12;3.38;;;1.50;;
11197;SDS011;5655;48.744;9.162;2023-04-22T13:17:38;2.60;;;1.48;;
11197;SDS011;5655;48.744;9.162;2023-04-22T13:20:04;2.47;;;1.67;;
11197;SDS011;5655;48.744;9.162;2023-04-22T13:22:31;3.10;;;1.42;;
11197;SDS011;5655;48.744;9.162;2023-04-22T13:24:57;3.97;;;1.55;;
11197;SDS011;5655;48.744;9.162;2023-04-22T13:27:23;3.90;;;1.63;;
11197;SDS011;5655;48.744;9.162;2023-04-22T13:29:48;3.33;;;1.52;;
11197;SDS011;5655;48.744;9.162;2023-04-22T13:32:13;1.92;;;1.40;;
11197;SDS011;5655;48.744;9.162;2023-04-22T13:34:39;4.75;;;1.55;;
11197;SDS011;5655;48.744;9.162;2023-04-22T13:37:05;2.00;;;1.48;;
11197;SDS011;5655;48.744;9.162;2023-04-22T13:39:30;2.38;;;1.55;;
11197;SDS011;5655;48.744;9.162;2023-04-22T13:41:56;3.80;;;1.73;;
11197;SDS011;5655;48.744;9.162;2023-04-22T13:44:22;3.92;;;1.58;;
11197;SDS011;5655;48.744;9.162;2023-04-22T13:46:47;3.83;;;2.15;;
11197;SDS011;5655;48.744;9.162;2023-04-22T13:49:12;2.13;;;1.50;;
11197;SDS011;5655;48.744;9.162;2023-04-22T13:51:38;5.40;;;1.58;;
11197;SDS011;5655;48.744;9.162;2023-04-22T13:54:03;3.58;;;1.40;;
11197;SDS011;5655;48.744;9.162;2023-04-22T13:56:30;2.67;;;1.30;;
11197;SDS011;5655;48.744;9.162;2023-04-22T13:58:55;1.48;;;1.30;;
11197;SDS011;5655;48.744;9.162;2023-04-22T14:01:21;3.63;;;1.60;;
11197;SDS011;5655;48.744;9.162;2023-04-22T14:03:46;3.13;;;1.70;;
11197;SDS011;5655;48.744;9.162;2023-04-22T14:06:14;3.47;;;1.77;;
11197;SDS011;5655;48.744;9.162;2023-04-22T14:08:40;2.67;;;1.38;;
11197;SDS011;5655;48.744;9.162;2023-04-22T14:11:06;1.13;;;1.00;;
11197;SDS011;5655;48.744;9.162;2023-04-22T14:13:31;2.40;;;1.42;;
11197;SDS011;5655;48.744;9.162;2023-04-22T14:15:57;1.58;;;1.40;;
11197;SDS011;5655;48.744;9.162;2023-04-22T14:18:23;4.70;;;1.50;;
11197;SDS011;5655;48.744;9.162;2023-04-22T14:20:49;1.60;;;1.00;;
11197;SDS011;5655;48.744;9.162;2023-04-22T14:23:15;3.53;;;1.83;;
11197;SDS011;5655;48.744;9.162;2023-04-22T14:25:41;2.65;;;1.40;;
11197;SDS011;5655;48.744;9.162;2023-04-22T14:28:07;2.47;;;1.38;;
11197;SDS011;5655;48.744;9.162;2023-04-22T14:30:33;3.40;;;1.80;;
11197;SDS011;5655;48.744;9.162;2023-04-22T14:32:58;3.13;;;1.50;;
11197;SDS011;5655;48.744;9.162;2023-04-22T14:35:24;2.80;;;1.40;;
11197;SDS011;5655;48.744;9.162;2023-04-22T14:37:49;3.22;;;1.63;;
11197;SDS011;5655;48.744;9.162;2023-04-22T14:40:15;2.50;;;1.40;;
11197;SDS011;5655;48.744;9.162;2023-04-22T14:42:41;4.18;;;1.55;;
11197;SDS011;5655;48.744;9.162;2023-04-22T14:45:06;4.55;;;1.73;;
11197;SDS011;5655;48.744;9.162;2023-04-22T14:47:32;2.15;;;1.67;;
11197;SDS011;5655;48.744;9.162;2023-04-22T14:49:57;4.40;;;1.40;;
11197;SDS011;5655;48.744;9.162;2023-04-22T14:52:23;3.80;;;1.98;;
11197;SDS011;5655;48.744;9.162;2023-04-22T14:54:48;3.90;;;1.50;;
11197;SDS011;5655;48.744;9.162;2023-04-22T14:57:14;2.13;;;1.50;;
11197;SDS011;5655;48.744;9.162;2023-04-22T14:59:39;3.28;;;1.58;;
11197;SDS011;5655;48.744;9.162;2023-04-22T15:02:05;2.08;;;1.45;;
11197;SDS011;5655;48.744;9.162;2023-04-22T15:04:31;3.03;;;1.60;;
11197;SDS011;5655;48.744;9.162;2023-04-22T15:06:56;4.53;;;1.52;;
11197;SDS011;5655;48.744;9.162;2023-04-22T15:09:22;3.05;;;2.13;;
11197;SDS011;5655;48.744;9.162;2023-04-22T15:11:48;1.92;;;1.40;;
11197;SDS011;5655;48.744;9.162;2023-04-22T15:14:14;3.53;;;1.80;;
11197;SDS011;5655;48.744;9.162;2023-04-22T15:16:40;3.20;;;1.58;;
11197;SDS011;5655;48.744;9.162;2023-04-22T15:19:05;1.73;;;1.50;;